sensor_id;sensor_type;location;lat;lon;timestamp;temperature;humidity
66337;SHT30;53139;45.576;5.304;2023-06-14T00:00:32;17.53;96.38
66337;SHT30;53139;45.576;5.304;2023-06-14T00:03:34;17.62;94.72
66337;SHT30;53139;45.576;5.304;2023-06-14T00:06:34;17.53;95.22
66337;SHT30;53139;45.576;5.304;2023-06-14T00:09:35;17.59;94.37
66337;SHT30;53139;45.576;5.304;2023-06-14T00:12:35;17.53;94.69
66337;SHT30;53139;45.576;5.304;2023-06-14T00:15:36;17.59;93.93
66337;SHT30;53139;45.576;5.304;2023-06-14T00:18:37;17.49;95.14
66337;SHT30;53139;45.576;5.304;2023-06-14T00:21:38;17.47;95.15
66337;SHT30;53139;45.576;5.304;2023-06-14T00:24:38;17.47;95.39
66337;SHT30;53139;45.576;5.304;2023-06-14T00:27:39;17.36;95.71
66337;SHT30;53139;45.576;5.304;2023-06-14T00:30:39;17.32;96.11
66337;SHT30;53139;45.576;5.304;2023-06-14T00:33:39;17.29;96.09
66337;SHT30;53139;45.576;5.304;2023-06-14T00:36:40;17.40;95.04
66337;SHT30;53139;45.576;5.304;2023-06-14T00:39:40;17.40;94.69
66337;SHT30;53139;45.576;5.304;2023-06-14T00:42:40;17.39;95.04
66337;SHT30;53139;45.576;5.304;2023-06-14T00:45:41;17.30;95.39
66337;SHT30;53139;45.576;5.304;2023-06-14T00:48:41;17.30;95.48
66337;SHT30;53139;45.576;5.304;2023-06-14T00:51:42;17.37;94.89
66337;SHT30;53139;45.576;5.304;2023-06-14T00:54:43;17.26;95.64
66337;SHT30;53139;45.576;5.304;2023-06-14T00:57:44;17.30;95.21
66337;SHT30;53139;45.576;5.304;2023-06-14T01:00:45;17.09;96.61
66337;SHT30;53139;45.576;5.304;2023-06-14T01:03:46;17.19;96.08
66337;SHT30;53139;45.576;5.304;2023-06-14T01:07:10;17.22;96.23
66337;SHT30;53139;45.576;5.304;2023-06-14T01:13:28;17.14;97.41
66337;SHT30;53139;45.576;5.304;2023-06-14T01:16:30;17.12;97.02
66337;SHT30;53139;45.576;5.304;2023-06-14T01:19:32;17.18;96.37
66337;SHT30;53139;45.576;5.304;2023-06-14T01:22:34;17.20;96.57
66337;SHT30;53139;45.576;5.304;2023-06-14T01:25:35;17.15;97.29
66337;SHT30;53139;45.576;5.304;2023-06-14T01:28:37;17.12;97.11
66337;SHT30;53139;45.576;5.304;2023-06-14T01:31:38;17.15;95.99
66337;SHT30;53139;45.576;5.304;2023-06-14T01:34:41;17.12;96.43
66337;SHT30;53139;45.576;5.304;2023-06-14T01:37:42;17.16;96.17
66337;SHT30;53139;45.576;5.304;2023-06-14T01:40:44;17.19;95.81
66337;SHT30;53139;45.576;5.304;2023-06-14T01:43:46;17.20;95.98
66337;SHT30;53139;45.576;5.304;2023-06-14T01:46:48;17.19;95.97
66337;SHT30;53139;45.576;5.304;2023-06-14T01:49:48;17.15;96.14
66337;SHT30;53139;45.576;5.304;2023-06-14T01:52:49;17.16;96.26
66337;SHT30;53139;45.576;5.304;2023-06-14T01:55:49;17.12;96.08
66337;SHT30;53139;45.576;5.304;2023-06-14T01:58:50;17.22;95.28
66337;SHT30;53139;45.576;5.304;2023-06-14T02:01:51;17.16;95.43
66337;SHT30;53139;45.576;5.304;2023-06-14T02:04:52;17.09;96.60
66337;SHT30;53139;45.576;5.304;2023-06-14T02:07:52;17.12;96.23
66337;SHT30;53139;45.576;5.304;2023-06-14T02:10:55;17.11;96.36
66337;SHT30;53139;45.576;5.304;2023-06-14T02:13:56;17.08;96.33
66337;SHT30;53139;45.576;5.304;2023-06-14T02:16:57;17.08;96.47
66337;SHT30;53139;45.576;5.304;2023-06-14T02:19:57;17.08;96.58
66337;SHT30;53139;45.576;5.304;2023-06-14T02:22:57;17.05;96.88
66337;SHT30;53139;45.576;5.304;2023-06-14T02:25:58;17.01;96.95
66337;SHT30;53139;45.576;5.304;2023-06-14T02:28:58;17.02;97.04
66337;SHT30;53139;45.576;5.304;2023-06-14T02:31:58;17.04;96.83
66337;SHT30;53139;45.576;5.304;2023-06-14T02:34:59;16.96;97.73
66337;SHT30;53139;45.576;5.304;2023-06-14T02:37:59;16.99;97.78
66337;SHT30;53139;45.576;5.304;2023-06-14T02:41:00;16.91;97.45
66337;SHT30;53139;45.576;5.304;2023-06-14T02:44:01;17.02;96.98
66337;SHT30;53139;45.576;5.304;2023-06-14T02:47:03;16.98;96.82
66337;SHT30;53139;45.576;5.304;2023-06-14T02:50:03;17.01;96.57
66337;SHT30;53139;45.576;5.304;2023-06-14T02:53:04;16.99;96.84
66337;SHT30;53139;45.576;5.304;2023-06-14T02:56:04;16.98;97.04
66337;SHT30;53139;45.576;5.304;2023-06-14T02:59:05;17.02;96.53
66337;SHT30;53139;45.576;5.304;2023-06-14T03:02:05;17.07;96.27
66337;SHT30;53139;45.576;5.304;2023-06-14T03:05:06;17.05;96.20
66337;SHT30;53139;45.576;5.304;2023-06-14T03:08:07;17.08;96.18
66337;SHT30;53139;45.576;5.304;2023-06-14T03:11:08;17.05;96.25
66337;SHT30;53139;45.576;5.304;2023-06-14T03:14:09;16.99;96.84
66337;SHT30;53139;45.576;5.304;2023-06-14T03:17:09;16.99;96.52
66337;SHT30;53139;45.576;5.304;2023-06-14T03:20:10;17.04;96.03
66337;SHT30;53139;45.576;5.304;2023-06-14T03:23:11;17.04;96.30
66337;SHT30;53139;45.576;5.304;2023-06-14T03:26:12;16.98;96.89
66337;SHT30;53139;45.576;5.304;2023-06-14T03:29:14;16.98;97.04
66337;SHT30;53139;45.576;5.304;2023-06-14T03:32:14;17.01;96.57
66337;SHT30;53139;45.576;5.304;2023-06-14T03:35:14;16.95;97.33
66337;SHT30;53139;45.576;5.304;2023-06-14T03:38:18;17.01;96.76
66337;SHT30;53139;45.576;5.304;2023-06-14T03:41:18;17.04;96.63
66337;SHT30;53139;45.576;5.304;2023-06-14T03:44:18;16.98;96.95
66337;SHT30;53139;45.576;5.304;2023-06-14T03:47:19;16.98;97.20
66337;SHT30;53139;45.576;5.304;2023-06-14T03:50:19;16.95;97.11
66337;SHT30;53139;45.576;5.304;2023-06-14T03:53:20;16.98;97.00
66337;SHT30;53139;45.576;5.304;2023-06-14T03:56:23;16.99;97.34
66337;SHT30;53139;45.576;5.304;2023-06-14T03:59:23;16.88;97.37
66337;SHT30;53139;45.576;5.304;2023-06-14T04:02:24;16.84;98.26
66337;SHT30;53139;45.576;5.304;2023-06-14T04:05:25;16.88;97.99
66337;SHT30;53139;45.576;5.304;2023-06-14T04:08:26;16.87;98.21
66337;SHT30;53139;45.576;5.304;2023-06-14T04:11:27;16.78;99.06
66337;SHT30;53139;45.576;5.304;2023-06-14T04:14:27;16.85;98.28
66337;SHT30;53139;45.576;5.304;2023-06-14T04:17:28;16.82;98.14
66337;SHT30;53139;45.576;5.304;2023-06-14T04:20:28;16.89;98.51
66337;SHT30;53139;45.576;5.304;2023-06-14T04:23:29;16.84;98.44
66337;SHT30;53139;45.576;5.304;2023-06-14T04:26:32;16.87;98.86
66337;SHT30;53139;45.576;5.304;2023-06-14T04:29:33;16.94;98.63
66337;SHT30;53139;45.576;5.304;2023-06-14T04:32:34;17.01;98.17
66337;SHT30;53139;45.576;5.304;2023-06-14T04:35:39;17.09;97.58
66337;SHT30;53139;45.576;5.304;2023-06-14T04:38:40;17.15;97.88
66337;SHT30;53139;45.576;5.304;2023-06-14T04:41:41;17.18;97.59
66337;SHT30;53139;45.576;5.304;2023-06-14T04:44:42;17.23;99.00
66337;SHT30;53139;45.576;5.304;2023-06-14T04:47:43;17.29;97.58
66337;SHT30;53139;45.576;5.304;2023-06-14T04:50:44;17.37;97.50
66337;SHT30;53139;45.576;5.304;2023-06-14T04:53:45;17.40;97.41
66337;SHT30;53139;45.576;5.304;2023-06-14T04:56:45;17.46;97.66
66337;SHT30;53139;45.576;5.304;2023-06-14T04:59:46;17.50;96.58
66337;SHT30;53139;45.576;5.304;2023-06-14T05:02:47;17.57;97.16
66337;SHT30;53139;45.576;5.304;2023-06-14T05:05:50;17.64;97.21
66337;SHT30;53139;45.576;5.304;2023-06-14T05:08:50;17.69;96.70
66337;SHT30;53139;45.576;5.304;2023-06-14T05:11:51;17.77;96.80
66337;SHT30;53139;45.576;5.304;2023-06-14T05:14:51;17.83;96.65
66337;SHT30;53139;45.576;5.304;2023-06-14T05:17:52;17.88;96.69
66337;SHT30;53139;45.576;5.304;2023-06-14T05:20:55;17.95;96.00
66337;SHT30;53139;45.576;5.304;2023-06-14T05:23:55;18.02;95.88
66337;SHT30;53139;45.576;5.304;2023-06-14T05:26:56;18.12;94.46
66337;SHT30;53139;45.576;5.304;2023-06-14T05:29:57;18.21;94.72
66337;SHT30;53139;45.576;5.304;2023-06-14T05:32:59;18.15;93.82
66337;SHT30;53139;45.576;5.304;2023-06-14T05:35:59;18.21;94.08
66337;SHT30;53139;45.576;5.304;2023-06-14T05:38:59;18.25;93.98
66337;SHT30;53139;45.576;5.304;2023-06-14T05:42:01;18.36;93.83
66337;SHT30;53139;45.576;5.304;2023-06-14T05:45:01;18.46;94.18
66337;SHT30;53139;45.576;5.304;2023-06-14T05:48:01;18.59;93.17
66337;SHT30;53139;45.576;5.304;2023-06-14T05:51:02;18.64;94.07
66337;SHT30;53139;45.576;5.304;2023-06-14T05:54:03;18.78;92.99
66337;SHT30;53139;45.576;5.304;2023-06-14T05:57:03;18.98;93.42
66337;SHT30;53139;45.576;5.304;2023-06-14T06:00:07;19.14;91.67
66337;SHT30;53139;45.576;5.304;2023-06-14T06:03:17;19.42;90.54
66337;SHT30;53139;45.576;5.304;2023-06-14T06:06:17;19.47;91.64
66337;SHT30;53139;45.576;5.304;2023-06-14T06:09:18;19.40;91.14
66337;SHT30;53139;45.576;5.304;2023-06-14T06:12:19;19.39;90.69
66337;SHT30;53139;45.576;5.304;2023-06-14T06:15:20;19.29;91.60
66337;SHT30;53139;45.576;5.304;2023-06-14T06:18:20;19.47;92.09
66337;SHT30;53139;45.576;5.304;2023-06-14T06:21:21;19.67;92.17
66337;SHT30;53139;45.576;5.304;2023-06-14T06:24:21;19.77;91.15
66337;SHT30;53139;45.576;5.304;2023-06-14T06:27:21;19.83;88.49
66337;SHT30;53139;45.576;5.304;2023-06-14T06:30:22;20.00;89.87
66337;SHT30;53139;45.576;5.304;2023-06-14T06:33:22;20.07;90.00
66337;SHT30;53139;45.576;5.304;2023-06-14T06:36:23;20.00;90.34
66337;SHT30;53139;45.576;5.304;2023-06-14T06:39:24;19.98;89.61
66337;SHT30;53139;45.576;5.304;2023-06-14T06:42:24;20.01;88.83
66337;SHT30;53139;45.576;5.304;2023-06-14T06:45:25;20.01;89.83
66337;SHT30;53139;45.576;5.304;2023-06-14T06:48:25;20.04;89.92
66337;SHT30;53139;45.576;5.304;2023-06-14T06:51:32;20.22;89.29
66337;SHT30;53139;45.576;5.304;2023-06-14T06:54:33;20.25;89.46
66337;SHT30;53139;45.576;5.304;2023-06-14T06:57:34;20.36;88.53
66337;SHT30;53139;45.576;5.304;2023-06-14T07:00:34;20.17;89.10
66337;SHT30;53139;45.576;5.304;2023-06-14T07:03:34;20.18;89.02
66337;SHT30;53139;45.576;5.304;2023-06-14T07:06:35;20.10;89.38
66337;SHT30;53139;45.576;5.304;2023-06-14T07:09:36;20.15;89.71
66337;SHT30;53139;45.576;5.304;2023-06-14T07:12:36;20.28;88.83
66337;SHT30;53139;45.576;5.304;2023-06-14T07:15:39;20.38;88.74
66337;SHT30;53139;45.576;5.304;2023-06-14T07:18:39;20.52;87.89
66337;SHT30;53139;45.576;5.304;2023-06-14T07:21:40;20.72;86.68
66337;SHT30;53139;45.576;5.304;2023-06-14T07:24:40;20.62;86.63
66337;SHT30;53139;45.576;5.304;2023-06-14T07:27:42;20.66;85.02
66337;SHT30;53139;45.576;5.304;2023-06-14T07:30:43;20.76;83.88
66337;SHT30;53139;45.576;5.304;2023-06-14T07:33:44;20.88;83.49
66337;SHT30;53139;45.576;5.304;2023-06-14T07:36:44;20.79;84.06
66337;SHT30;53139;45.576;5.304;2023-06-14T07:39:45;20.67;83.47
66337;SHT30;53139;45.576;5.304;2023-06-14T07:42:45;20.79;85.30
66337;SHT30;53139;45.576;5.304;2023-06-14T07:45:46;21.02;84.00
66337;SHT30;53139;45.576;5.304;2023-06-14T07:48:46;21.10;84.32
66337;SHT30;53139;45.576;5.304;2023-06-14T07:51:46;21.27;85.98
66337;SHT30;53139;45.576;5.304;2023-06-14T07:54:48;21.07;85.62
66337;SHT30;53139;45.576;5.304;2023-06-14T07:57:48;21.10;84.11
66337;SHT30;53139;45.576;5.304;2023-06-14T08:00:49;21.10;86.03
66337;SHT30;53139;45.576;5.304;2023-06-14T08:03:50;21.21;83.43
66337;SHT30;53139;45.576;5.304;2023-06-14T08:06:50;21.42;84.59
66337;SHT30;53139;45.576;5.304;2023-06-14T08:09:51;21.65;83.57
66337;SHT30;53139;45.576;5.304;2023-06-14T08:12:51;21.42;83.00
66337;SHT30;53139;45.576;5.304;2023-06-14T08:15:51;21.46;83.27
66337;SHT30;53139;45.576;5.304;2023-06-14T08:18:52;21.72;81.93
66337;SHT30;53139;45.576;5.304;2023-06-14T08:21:52;21.70;83.79
66337;SHT30;53139;45.576;5.304;2023-06-14T08:24:54;21.84;83.80
66337;SHT30;53139;45.576;5.304;2023-06-14T08:27:58;21.89;83.21
66337;SHT30;53139;45.576;5.304;2023-06-14T08:31:05;22.21;84.06
66337;SHT30;53139;45.576;5.304;2023-06-14T08:34:05;22.20;81.74
66337;SHT30;53139;45.576;5.304;2023-06-14T08:37:06;22.55;82.06
66337;SHT30;53139;45.576;5.304;2023-06-14T08:40:19;22.29;83.88
66337;SHT30;53139;45.576;5.304;2023-06-14T08:43:20;22.53;83.21
66337;SHT30;53139;45.576;5.304;2023-06-14T08:46:20;22.83;82.98
66337;SHT30;53139;45.576;5.304;2023-06-14T08:49:22;22.65;80.35
66337;SHT30;53139;45.576;5.304;2023-06-14T08:52:27;22.80;77.55
66337;SHT30;53139;45.576;5.304;2023-06-14T08:55:31;23.15;79.70
66337;SHT30;53139;45.576;5.304;2023-06-14T08:58:33;22.84;76.25
66337;SHT30;53139;45.576;5.304;2023-06-14T09:01:34;23.01;81.13
66337;SHT30;53139;45.576;5.304;2023-06-14T09:04:35;23.29;81.69
66337;SHT30;53139;45.576;5.304;2023-06-14T09:07:37;23.54;79.51
66337;SHT30;53139;45.576;5.304;2023-06-14T09:10:40;23.12;75.94
66337;SHT30;53139;45.576;5.304;2023-06-14T09:13:41;24.11;77.23
66337;SHT30;53139;45.576;5.304;2023-06-14T09:16:42;24.64;74.89
66337;SHT30;53139;45.576;5.304;2023-06-14T09:19:42;25.04;68.64
66337;SHT30;53139;45.576;5.304;2023-06-14T09:22:42;25.31;67.91
66337;SHT30;53139;45.576;5.304;2023-06-14T09:25:43;25.47;65.88
66337;SHT30;53139;45.576;5.304;2023-06-14T09:28:45;25.47;68.15
66337;SHT30;53139;45.576;5.304;2023-06-14T09:31:46;26.48;66.53
66337;SHT30;53139;45.576;5.304;2023-06-14T09:34:47;26.74;65.00
66337;SHT30;53139;45.576;5.304;2023-06-14T09:37:47;27.19;64.53
66337;SHT30;53139;45.576;5.304;2023-06-14T09:40:49;26.31;69.75
66337;SHT30;53139;45.576;5.304;2023-06-14T09:43:50;27.09;64.17
66337;SHT30;53139;45.576;5.304;2023-06-14T09:46:50;26.92;62.97
66337;SHT30;53139;45.576;5.304;2023-06-14T09:49:51;26.55;64.08
66337;SHT30;53139;45.576;5.304;2023-06-14T09:53:05;27.86;63.16
66337;SHT30;53139;45.576;5.304;2023-06-14T09:56:06;26.10;67.16
66337;SHT30;53139;45.576;5.304;2023-06-14T09:59:09;26.03;67.14
66337;SHT30;53139;45.576;5.304;2023-06-14T10:05:23;26.55;70.91
66337;SHT30;53139;45.576;5.304;2023-06-14T10:08:27;26.34;65.65
66337;SHT30;53139;45.576;5.304;2023-06-14T10:11:29;27.51;65.60
66337;SHT30;53139;45.576;5.304;2023-06-14T10:14:30;27.58;64.25
66337;SHT30;53139;45.576;5.304;2023-06-14T10:17:42;28.75;66.83
66337;SHT30;53139;45.576;5.304;2023-06-14T10:21:05;28.50;61.62
66337;SHT30;53139;45.576;5.304;2023-06-14T10:24:10;28.74;64.02
66337;SHT30;53139;45.576;5.304;2023-06-14T10:27:13;26.85;65.43
66337;SHT30;53139;45.576;5.304;2023-06-14T10:30:14;27.11;67.71
66337;SHT30;53139;45.576;5.304;2023-06-14T10:33:15;27.64;67.35
66337;SHT30;53139;45.576;5.304;2023-06-14T10:39:22;28.16;63.13
66337;SHT30;53139;45.576;5.304;2023-06-14T10:42:27;27.68;63.42
66337;SHT30;53139;45.576;5.304;2023-06-14T10:45:28;28.09;66.37
66337;SHT30;53139;45.576;5.304;2023-06-14T10:48:32;27.23;63.76
66337;SHT30;53139;45.576;5.304;2023-06-14T10:51:41;28.19;65.62
66337;SHT30;53139;45.576;5.304;2023-06-14T10:55:03;28.51;59.13
66337;SHT30;53139;45.576;5.304;2023-06-14T10:58:06;28.47;60.65
66337;SHT30;53139;45.576;5.304;2023-06-14T11:01:07;29.77;54.57
66337;SHT30;53139;45.576;5.304;2023-06-14T11:04:09;29.74;54.06
66337;SHT30;53139;45.576;5.304;2023-06-14T11:07:48;29.12;53.22
66337;SHT30;53139;45.576;5.304;2023-06-14T11:10:54;29.95;53.93
66337;SHT30;53139;45.576;5.304;2023-06-14T11:13:56;28.08;55.02
66337;SHT30;53139;45.576;5.304;2023-06-14T11:16:56;28.05;57.94
66337;SHT30;53139;45.576;5.304;2023-06-14T11:20:10;27.62;57.25
66337;SHT30;53139;45.576;5.304;2023-06-14T11:23:15;27.54;55.81
66337;SHT30;53139;45.576;5.304;2023-06-14T11:26:16;28.41;58.56
66337;SHT30;53139;45.576;5.304;2023-06-14T11:29:24;29.23;59.18
66337;SHT30;53139;45.576;5.304;2023-06-14T11:32:24;30.41;56.66
66337;SHT30;53139;45.576;5.304;2023-06-14T11:35:25;30.95;54.26
66337;SHT30;53139;45.576;5.304;2023-06-14T11:38:26;30.57;54.47
66337;SHT30;53139;45.576;5.304;2023-06-14T11:41:42;30.77;55.70
66337;SHT30;53139;45.576;5.304;2023-06-14T11:44:46;30.46;49.48
66337;SHT30;53139;45.576;5.304;2023-06-14T11:47:46;29.33;58.81
66337;SHT30;53139;45.576;5.304;2023-06-14T11:50:50;30.68;51.83
66337;SHT30;53139;45.576;5.304;2023-06-14T11:53:51;30.41;52.83
66337;SHT30;53139;45.576;5.304;2023-06-14T11:56:51;31.35;52.25
66337;SHT30;53139;45.576;5.304;2023-06-14T11:59:52;31.42;51.22
66337;SHT30;53139;45.576;5.304;2023-06-14T12:02:56;31.81;46.02
66337;SHT30;53139;45.576;5.304;2023-06-14T12:06:07;31.05;47.28
66337;SHT30;53139;45.576;5.304;2023-06-14T12:09:08;30.61;44.89
66337;SHT30;53139;45.576;5.304;2023-06-14T12:12:12;30.22;49.29
66337;SHT30;53139;45.576;5.304;2023-06-14T12:15:13;31.32;48.16
66337;SHT30;53139;45.576;5.304;2023-06-14T12:18:13;30.13;45.61
66337;SHT30;53139;45.576;5.304;2023-06-14T12:21:14;31.45;45.53
66337;SHT30;53139;45.576;5.304;2023-06-14T12:24:15;31.02;48.32
66337;SHT30;53139;45.576;5.304;2023-06-14T12:27:15;32.01;48.61
66337;SHT30;53139;45.576;5.304;2023-06-14T12:30:18;31.63;45.59
66337;SHT30;53139;45.576;5.304;2023-06-14T12:33:19;31.33;46.70
66337;SHT30;53139;45.576;5.304;2023-06-14T12:36:19;32.12;47.21
66337;SHT30;53139;45.576;5.304;2023-06-14T12:39:20;31.81;45.89
66337;SHT30;53139;45.576;5.304;2023-06-14T12:42:21;31.70;46.09
66337;SHT30;53139;45.576;5.304;2023-06-14T12:45:21;31.84;42.29
66337;SHT30;53139;45.576;5.304;2023-06-14T12:48:23;31.81;42.68
66337;SHT30;53139;45.576;5.304;2023-06-14T12:51:23;30.94;44.60
66337;SHT30;53139;45.576;5.304;2023-06-14T12:54:25;31.11;42.23
66337;SHT30;53139;45.576;5.304;2023-06-14T12:57:25;30.43;37.49
66337;SHT30;53139;45.576;5.304;2023-06-14T13:00:26;30.78;41.00
66337;SHT30;53139;45.576;5.304;2023-06-14T13:03:26;31.16;40.73
66337;SHT30;53139;45.576;5.304;2023-06-14T13:06:27;30.59;40.28
66337;SHT30;53139;45.576;5.304;2023-06-14T13:09:29;31.40;44.60
66337;SHT30;53139;45.576;5.304;2023-06-14T13:12:30;32.35;40.58
66337;SHT30;53139;45.576;5.304;2023-06-14T13:15:30;30.57;42.63
66337;SHT30;53139;45.576;5.304;2023-06-14T13:18:30;31.63;46.45
66337;SHT30;53139;45.576;5.304;2023-06-14T13:21:31;32.22;46.16
66337;SHT30;53139;45.576;5.304;2023-06-14T13:24:31;31.62;41.93
66337;SHT30;53139;45.576;5.304;2023-06-14T13:27:32;31.16;38.86
66337;SHT30;53139;45.576;5.304;2023-06-14T13:30:33;30.78;41.60
66337;SHT30;53139;45.576;5.304;2023-06-14T13:33:34;32.04;40.69
66337;SHT30;53139;45.576;5.304;2023-06-14T13:36:34;31.84;41.75
66337;SHT30;53139;45.576;5.304;2023-06-14T13:39:34;32.77;39.85
66337;SHT30;53139;45.576;5.304;2023-06-14T13:42:37;31.64;39.93
66337;SHT30;53139;45.576;5.304;2023-06-14T13:45:38;32.04;44.13
66337;SHT30;53139;45.576;5.304;2023-06-14T13:48:38;31.87;45.33
66337;SHT30;53139;45.576;5.304;2023-06-14T13:51:38;31.32;39.49
66337;SHT30;53139;45.576;5.304;2023-06-14T13:54:39;30.64;41.10
66337;SHT30;53139;45.576;5.304;2023-06-14T13:57:39;31.47;38.32
66337;SHT30;53139;45.576;5.304;2023-06-14T14:00:39;32.45;41.48
66337;SHT30;53139;45.576;5.304;2023-06-14T14:03:40;31.60;42.83
66337;SHT30;53139;45.576;5.304;2023-06-14T14:06:40;32.55;42.61
66337;SHT30;53139;45.576;5.304;2023-06-14T14:09:41;32.45;40.08
66337;SHT30;53139;45.576;5.304;2023-06-14T14:12:43;32.45;41.46
66337;SHT30;53139;45.576;5.304;2023-06-14T14:15:43;31.98;40.35
66337;SHT30;53139;45.576;5.304;2023-06-14T14:18:45;32.12;39.43
66337;SHT30;53139;45.576;5.304;2023-06-14T14:21:45;31.54;37.30
66337;SHT30;53139;45.576;5.304;2023-06-14T14:24:46;31.46;37.58
66337;SHT30;53139;45.576;5.304;2023-06-14T14:27:47;31.25;35.68
66337;SHT30;53139;45.576;5.304;2023-06-14T14:30:48;29.95;39.09
66337;SHT30;53139;45.576;5.304;2023-06-14T14:33:48;31.64;37.04
66337;SHT30;53139;45.576;5.304;2023-06-14T14:36:48;32.08;34.80
66337;SHT30;53139;45.576;5.304;2023-06-14T14:39:49;31.98;32.69
66337;SHT30;53139;45.576;5.304;2023-06-14T14:42:49;31.11;31.60
66337;SHT30;53139;45.576;5.304;2023-06-14T14:45:50;32.32;33.18
66337;SHT30;53139;45.576;5.304;2023-06-14T14:48:50;32.15;31.38
66337;SHT30;53139;45.576;5.304;2023-06-14T14:51:50;32.15;31.01
66337;SHT30;53139;45.576;5.304;2023-06-14T14:54:51;30.52;30.03
66337;SHT30;53139;45.576;5.304;2023-06-14T14:57:51;30.88;31.11
66337;SHT30;53139;45.576;5.304;2023-06-14T15:00:52;30.92;31.54
66337;SHT30;53139;45.576;5.304;2023-06-14T15:03:52;31.94;34.48
66337;SHT30;53139;45.576;5.304;2023-06-14T15:06:52;31.56;31.94
66337;SHT30;53139;45.576;5.304;2023-06-14T15:09:54;31.66;33.29
66337;SHT30;53139;45.576;5.304;2023-06-14T15:12:54;31.23;33.79
66337;SHT30;53139;45.576;5.304;2023-06-14T15:15:54;31.07;31.04
66337;SHT30;53139;45.576;5.304;2023-06-14T15:18:55;31.02;28.59
66337;SHT30;53139;45.576;5.304;2023-06-14T15:21:55;30.43;30.12
66337;SHT30;53139;45.576;5.304;2023-06-14T15:24:57;32.42;31.93
66337;SHT30;53139;45.576;5.304;2023-06-14T15:27:57;30.70;28.35
66337;SHT30;53139;45.576;5.304;2023-06-14T15:30:58;30.92;28.58
66337;SHT30;53139;45.576;5.304;2023-06-14T15:33:59;31.19;33.81
66337;SHT30;53139;45.576;5.304;2023-06-14T15:36:59;30.88;29.93
66337;SHT30;53139;45.576;5.304;2023-06-14T15:40:00;31.59;33.42
66337;SHT30;53139;45.576;5.304;2023-06-14T15:43:00;31.37;30.65
66337;SHT30;53139;45.576;5.304;2023-06-14T15:46:00;31.11;36.41
66337;SHT30;53139;45.576;5.304;2023-06-14T15:49:01;30.99;28.34
66337;SHT30;53139;45.576;5.304;2023-06-14T15:52:03;30.87;29.77
66337;SHT30;53139;45.576;5.304;2023-06-14T15:55:03;30.78;29.29
66337;SHT30;53139;45.576;5.304;2023-06-14T15:58:04;32.05;30.04
66337;SHT30;53139;45.576;5.304;2023-06-14T16:01:04;30.12;29.03
66337;SHT30;53139;45.576;5.304;2023-06-14T16:04:05;30.56;34.05
66337;SHT30;53139;45.576;5.304;2023-06-14T16:07:06;30.71;30.89
66337;SHT30;53139;45.576;5.304;2023-06-14T16:10:06;30.74;27.41
66337;SHT30;53139;45.576;5.304;2023-06-14T16:13:07;30.23;28.46
66337;SHT30;53139;45.576;5.304;2023-06-14T16:16:09;30.94;28.13
66337;SHT30;53139;45.576;5.304;2023-06-14T16:19:09;30.81;31.61
66337;SHT30;53139;45.576;5.304;2023-06-14T16:22:10;30.53;26.87
66337;SHT30;53139;45.576;5.304;2023-06-14T16:25:10;29.49;29.75
66337;SHT30;53139;45.576;5.304;2023-06-14T16:28:10;29.92;28.17
66337;SHT30;53139;45.576;5.304;2023-06-14T16:31:14;29.67;27.97
66337;SHT30;53139;45.576;5.304;2023-06-14T16:34:15;29.92;27.91
66337;SHT30;53139;45.576;5.304;2023-06-14T16:37:16;30.23;33.70
66337;SHT30;53139;45.576;5.304;2023-06-14T16:40:16;30.91;31.05
66337;SHT30;53139;45.576;5.304;2023-06-14T16:43:17;29.65;32.63
66337;SHT30;53139;45.576;5.304;2023-06-14T16:46:28;30.33;33.02
66337;SHT30;53139;45.576;5.304;2023-06-14T16:49:29;30.23;32.06
66337;SHT30;53139;45.576;5.304;2023-06-14T16:52:29;30.80;33.09
66337;SHT30;53139;45.576;5.304;2023-06-14T16:55:29;29.95;33.76
66337;SHT30;53139;45.576;5.304;2023-06-14T16:58:31;29.89;36.29
66337;SHT30;53139;45.576;5.304;2023-06-14T17:01:32;30.35;32.05
66337;SHT30;53139;45.576;5.304;2023-06-14T17:04:34;30.01;32.68
66337;SHT30;53139;45.576;5.304;2023-06-14T17:07:34;30.15;35.48
66337;SHT30;53139;45.576;5.304;2023-06-14T17:10:35;29.78;35.45
66337;SHT30;53139;45.576;5.304;2023-06-14T17:13:35;28.96;35.58
66337;SHT30;53139;45.576;5.304;2023-06-14T17:16:36;29.58;34.75
66337;SHT30;53139;45.576;5.304;2023-06-14T17:19:36;28.27;33.21
66337;SHT30;53139;45.576;5.304;2023-06-14T17:22:37;29.03;35.77
66337;SHT30;53139;45.576;5.304;2023-06-14T17:25:38;28.64;37.00
66337;SHT30;53139;45.576;5.304;2023-06-14T17:28:38;28.32;34.57
66337;SHT30;53139;45.576;5.304;2023-06-14T17:31:39;28.27;33.39
66337;SHT30;53139;45.576;5.304;2023-06-14T17:34:39;27.86;37.74
66337;SHT30;53139;45.576;5.304;2023-06-14T17:37:40;27.93;34.95
66337;SHT30;53139;45.576;5.304;2023-06-14T17:40:41;27.82;35.85
66337;SHT30;53139;45.576;5.304;2023-06-14T17:43:41;27.20;35.98
66337;SHT30;53139;45.576;5.304;2023-06-14T17:46:41;27.29;36.67
66337;SHT30;53139;45.576;5.304;2023-06-14T17:49:42;27.20;40.36
66337;SHT30;53139;45.576;5.304;2023-06-14T17:52:42;26.72;39.09
66337;SHT30;53139;45.576;5.304;2023-06-14T17:55:42;26.96;37.17
66337;SHT30;53139;45.576;5.304;2023-06-14T17:58:43;26.86;38.80
66337;SHT30;53139;45.576;5.304;2023-06-14T18:01:43;26.69;39.78
66337;SHT30;53139;45.576;5.304;2023-06-14T18:04:44;26.98;37.97
66337;SHT30;53139;45.576;5.304;2023-06-14T18:07:44;26.72;37.30
66337;SHT30;53139;45.576;5.304;2023-06-14T18:10:44;26.45;38.81
66337;SHT30;53139;45.576;5.304;2023-06-14T18:13:45;26.12;36.91
66337;SHT30;53139;45.576;5.304;2023-06-14T18:16:45;25.93;39.27
66337;SHT30;53139;45.576;5.304;2023-06-14T18:19:46;25.76;35.97
66337;SHT30;53139;45.576;5.304;2023-06-14T18:22:47;25.52;38.16
66337;SHT30;53139;45.576;5.304;2023-06-14T18:25:47;25.17;38.87
66337;SHT30;53139;45.576;5.304;2023-06-14T18:28:47;24.99;38.50
66337;SHT30;53139;45.576;5.304;2023-06-14T18:31:48;24.87;40.98
66337;SHT30;53139;45.576;5.304;2023-06-14T18:34:48;24.76;41.00
66337;SHT30;53139;45.576;5.304;2023-06-14T18:37:49;24.55;40.13
66337;SHT30;53139;45.576;5.304;2023-06-14T18:40:49;24.35;42.78
66337;SHT30;53139;45.576;5.304;2023-06-14T18:43:51;24.35;40.80
66337;SHT30;53139;45.576;5.304;2023-06-14T18:46:52;24.22;40.10
66337;SHT30;53139;45.576;5.304;2023-06-14T18:49:52;24.01;43.35
66337;SHT30;53139;45.576;5.304;2023-06-14T18:52:52;24.04;41.24
66337;SHT30;53139;45.576;5.304;2023-06-14T18:55:53;23.72;43.98
66337;SHT30;53139;45.576;5.304;2023-06-14T18:58:53;23.58;42.23
66337;SHT30;53139;45.576;5.304;2023-06-14T19:01:54;23.46;43.35
66337;SHT30;53139;45.576;5.304;2023-06-14T19:04:54;23.20;45.09
66337;SHT30;53139;45.576;5.304;2023-06-14T19:07:55;23.12;45.65
66337;SHT30;53139;45.576;5.304;2023-06-14T19:10:55;23.00;45.46
66337;SHT30;53139;45.576;5.304;2023-06-14T19:13:56;23.04;46.11